sensor_id;sensor_type;location;lat;lon;timestamp;pressure;altitude;pressure_sealevel;temperature;humidity
12247;BME280;6186;52.022;4.692;2023-05-11T00:02:03;101561.13;;;13.92;100.00
12247;BME280;6186;52.022;4.692;2023-05-11T00:04:29;101560.25;;;13.92;100.00
12247;BME280;6186;52.022;4.692;2023-05-11T00:06:54;101570.84;;;13.92;100.00
12247;BME280;6186;52.022;4.692;2023-05-11T00:09:19;101562.91;;;13.92;100.00
12247;BME280;6186;52.022;4.692;2023-05-11T00:11:44;101565.56;;;13.92;100.00
12247;BME280;6186;52.022;4.692;2023-05-11T00:14:10;101567.31;;;13.91;100.00
12247;BME280;6186;52.022;4.692;2023-05-11T00:16:35;101566.53;;;13.88;100.00
12247;BME280;6186;52.022;4.692;2023-05-11T00:19:00;101577.09;;;13.89;100.00
12247;BME280;6186;52.022;4.692;2023-05-11T00:21:25;101570.94;;;13.89;100.00
12247;BME280;6186;52.022;4.692;2023-05-11T00:23:50;101573.59;;;13.89;100.00
12247;BME280;6186;52.022;4.692;2023-05-11T00:26:17;101566.50;;;13.89;100.00
12247;BME280;6186;52.022;4.692;2023-05-11T00:28:42;101568.19;;;13.92;100.00
12247;BME280;6186;52.022;4.692;2023-05-11T00:31:07;101565.56;;;13.92;100.00
12247;BME280;6186;52.022;4.692;2023-05-11T00:33:32;101564.72;;;13.90;100.00
12247;BME280;6186;52.022;4.692;2023-05-11T00:35:58;101558.59;;;13.88;100.00
12247;BME280;6186;52.022;4.692;2023-05-11T00:38:23;101554.31;;;13.84;100.00
12247;BME280;6186;52.022;4.692;2023-05-11T00:40:49;101567.47;;;13.87;100.00
12247;BME280;6186;52.022;4.692;2023-05-11T00:43:14;101562.19;;;13.87;100.00
12247;BME280;6186;52.022;4.692;2023-05-11T00:45:39;101562.19;;;13.87;100.00
12247;BME280;6186;52.022;4.692;2023-05-11T00:48:04;101556.88;;;13.87;100.00
12247;BME280;6186;52.022;4.692;2023-05-11T00:50:30;101565.66;;;13.87;100.00
12247;BME280;6186;52.022;4.692;2023-05-11T00:52:56;101560.44;;;13.86;100.00
12247;BME280;6186;52.022;4.692;2023-05-11T00:55:21;101567.53;;;13.84;100.00
12247;BME280;6186;52.022;4.692;2023-05-11T00:57:47;101561.47;;;13.80;100.00
12247;BME280;6186;52.022;4.692;2023-05-11T01:00:12;101564.97;;;13.81;100.00
12247;BME280;6186;52.022;4.692;2023-05-11T01:02:38;101566.75;;;13.80;100.00
12247;BME280;6186;52.022;4.692;2023-05-11T01:05:04;101567.69;;;13.79;100.00
12247;BME280;6186;52.022;4.692;2023-05-11T01:07:39;101566.78;;;13.79;100.00
12247;BME280;6186;52.022;4.692;2023-05-11T01:10:19;101574.69;;;13.80;100.00
12247;BME280;6186;52.022;4.692;2023-05-11T01:12:56;101568.53;;;13.80;100.00
12247;BME280;6186;52.022;4.692;2023-05-11T01:16:10;101565.03;;;13.79;100.00
12247;BME280;6186;52.022;4.692;2023-05-11T01:18:39;101569.44;;;13.79;100.00
12247;BME280;6186;52.022;4.692;2023-05-11T01:21:07;101568.56;;;13.78;100.00
12247;BME280;6186;52.022;4.692;2023-05-11T01:31:23;101568.63;;;13.77;100.00
12247;BME280;6186;52.022;4.692;2023-05-11T01:33:57;101571.31;;;13.75;100.00
12247;BME280;6186;52.022;4.692;2023-05-11T01:36:28;101572.16;;;13.76;100.00
12247;BME280;6186;52.022;4.692;2023-05-11T01:38:57;101564.31;;;13.73;100.00
12247;BME280;6186;52.022;4.692;2023-05-11T01:41:27;101549.63;;;13.61;100.00
12247;BME280;6186;52.022;4.692;2023-05-11T01:43:57;101564.34;;;13.71;100.00
12247;BME280;6186;52.022;4.692;2023-05-11T01:46:25;101572.28;;;13.71;100.00
12247;BME280;6186;52.022;4.692;2023-05-11T01:48:53;101569.59;;;13.73;100.00
12247;BME280;6186;52.022;4.692;2023-05-11T01:51:22;101576.66;;;13.74;100.00
12247;BME280;6186;52.022;4.692;2023-05-11T01:53:48;101573.19;;;13.70;100.00
12247;BME280;6186;52.022;4.692;2023-05-11T01:56:15;101574.91;;;13.73;100.00
12247;BME280;6186;52.022;4.692;2023-05-11T01:58:44;101574.09;;;13.69;100.00
12247;BME280;6186;52.022;4.692;2023-05-11T02:01:11;101565.28;;;13.69;100.00
12247;BME280;6186;52.022;4.692;2023-05-11T02:03:39;101571.50;;;13.68;100.00
12247;BME280;6186;52.022;4.692;2023-05-11T02:06:06;101575.94;;;13.67;100.00
12247;BME280;6186;52.022;4.692;2023-05-11T02:08:35;101581.16;;;13.69;100.00
12247;BME280;6186;52.022;4.692;2023-05-11T02:11:02;101582.94;;;13.68;100.00
12247;BME280;6186;52.022;4.692;2023-05-11T02:13:29;101579.50;;;13.65;100.00
12247;BME280;6186;52.022;4.692;2023-05-11T02:15:56;101585.63;;;13.67;100.00
12247;BME280;6186;52.022;4.692;2023-05-11T02:18:21;101589.19;;;13.66;100.00
12247;BME280;6186;52.022;4.692;2023-05-11T02:20:48;101588.28;;;13.67;100.00
12247;BME280;6186;52.022;4.692;2023-05-11T02:23:16;101566.53;;;13.56;100.00
12247;BME280;6186;52.022;4.692;2023-05-11T02:25:42;101583.03;;;13.65;100.00
12247;BME280;6186;52.022;4.692;2023-05-11T02:28:08;101594.34;;;13.70;100.00
12247;BME280;6186;52.022;4.692;2023-05-11T02:30:44;101589.03;;;13.72;100.00
12247;BME280;6186;52.022;4.692;2023-05-11T02:33:14;101590.78;;;13.73;100.00
12247;BME280;6186;52.022;4.692;2023-05-11T02:35:42;101589.06;;;13.70;100.00
12247;BME280;6186;52.022;4.692;2023-05-11T02:38:09;101583.66;;;13.75;100.00
12247;BME280;6186;52.022;4.692;2023-05-11T02:40:39;101582.72;;;13.77;100.00
12247;BME280;6186;52.022;4.692;2023-05-11T02:43:08;101582.72;;;13.77;100.00
12247;BME280;6186;52.022;4.692;2023-05-11T02:45:35;101583.56;;;13.78;100.00
12247;BME280;6186;52.022;4.692;2023-05-11T02:48:06;101583.66;;;13.75;100.00
12247;BME280;6186;52.022;4.692;2023-05-11T02:50:36;101581.94;;;13.74;100.00
12247;BME280;6186;52.022;4.692;2023-05-11T02:53:06;101588.06;;;13.74;100.00
12247;BME280;6186;52.022;4.692;2023-05-11T02:55:34;101582.78;;;13.74;100.00
12247;BME280;6186;52.022;4.692;2023-05-11T02:57:59;101577.53;;;13.73;100.00
12247;BME280;6186;52.022;4.692;2023-05-11T03:00:25;101581.84;;;13.77;100.00
12247;BME280;6186;52.022;4.692;2023-05-11T03:02:50;101570.53;;;13.72;100.00
12247;BME280;6186;52.022;4.692;2023-05-11T03:05:15;101589.84;;;13.75;100.00
12247;BME280;6186;52.022;4.692;2023-05-11T03:07:41;101590.88;;;13.70;100.00
12247;BME280;6186;52.022;4.692;2023-05-11T03:10:07;101588.22;;;13.70;100.00
12247;BME280;6186;52.022;4.692;2023-05-11T03:12:32;101589.94;;;13.71;100.00
12247;BME280;6186;52.022;4.692;2023-05-11T03:14:59;101582.09;;;13.68;100.00
12247;BME280;6186;52.022;4.692;2023-05-11T03:17:26;101584.78;;;13.65;100.00
12247;BME280;6186;52.022;4.692;2023-05-11T03:19:52;101590.13;;;13.63;100.00
12247;BME280;6186;52.022;4.692;2023-05-11T03:22:19;101583.97;;;13.63;100.00
12247;BME280;6186;52.022;4.692;2023-05-11T03:24:45;101582.19;;;13.63;100.00
12247;BME280;6186;52.022;4.692;2023-05-11T03:27:11;101582.16;;;13.65;100.00
12247;BME280;6186;52.022;4.692;2023-05-11T03:29:37;101579.50;;;13.66;100.00
12247;BME280;6186;52.022;4.692;2023-05-11T03:32:03;101580.34;;;13.67;100.00
12247;BME280;6186;52.022;4.692;2023-05-11T03:34:28;101579.44;;;13.68;100.00
12247;BME280;6186;52.022;4.692;2023-05-11T03:36:55;101575.94;;;13.67;100.00
12247;BME280;6186;52.022;4.692;2023-05-11T03:39:22;101575.97;;;13.66;100.00
12247;BME280;6186;52.022;4.692;2023-05-11T03:41:49;101568.09;;;13.63;100.00
12247;BME280;6186;52.022;4.692;2023-05-11T03:44:16;101566.28;;;13.65;100.00
12247;BME280;6186;52.022;4.692;2023-05-11T03:46:43;101576.03;;;13.64;100.00
12247;BME280;6186;52.022;4.692;2023-05-11T03:49:08;101570.75;;;13.63;100.00
12247;BME280;6186;52.022;4.692;2023-05-11T03:51:34;101569.84;;;13.64;100.00
12247;BME280;6186;52.022;4.692;2023-05-11T03:54:00;101572.50;;;13.64;100.00
12247;BME280;6186;52.022;4.692;2023-05-11T03:56:25;101563.69;;;13.63;100.00
12247;BME280;6186;52.022;4.692;2023-05-11T03:58:51;101561.00;;;13.65;100.00
12247;BME280;6186;52.022;4.692;2023-05-11T04:01:17;101561.88;;;13.65;100.00
12247;BME280;6186;52.022;4.692;2023-05-11T04:03:49;101555.78;;;13.62;100.00
12247;BME280;6186;52.022;4.692;2023-05-11T04:06:16;101562.75;;;13.66;100.00
12247;BME280;6186;52.022;4.692;2023-05-11T04:08:41;101560.09;;;13.66;100.00
12247;BME280;6186;52.022;4.692;2023-05-11T04:11:07;101562.75;;;13.66;100.00
12247;BME280;6186;52.022;4.692;2023-05-11T04:13:32;101573.38;;;13.63;100.00
12247;BME280;6186;52.022;4.692;2023-05-11T04:15:57;101565.53;;;13.60;100.00
12247;BME280;6186;52.022;4.692;2023-05-11T04:18:22;101569.13;;;13.59;100.00
12247;BME280;6186;52.022;4.692;2023-05-11T04:20:47;101575.28;;;13.58;100.00
12247;BME280;6186;52.022;4.692;2023-05-11T04:23:14;101570.03;;;13.56;100.00
12247;BME280;6186;52.022;4.692;2023-05-11T04:25:39;101570.94;;;13.55;100.00
12247;BME280;6186;52.022;4.692;2023-05-11T04:28:04;101568.34;;;13.54;100.00
12247;BME280;6186;52.022;4.692;2023-05-11T04:30:30;101584.06;;;13.60;100.00
12247;BME280;6186;52.022;4.692;2023-05-11T04:32:55;101575.34;;;13.56;100.00
12247;BME280;6186;52.022;4.692;2023-05-11T04:35:20;101582.41;;;13.56;100.00
12247;BME280;6186;52.022;4.692;2023-05-11T04:37:45;101587.59;;;13.60;100.00
12247;BME280;6186;52.022;4.692;2023-05-11T04:40:11;101584.16;;;13.57;100.00
12247;BME280;6186;52.022;4.692;2023-05-11T04:42:36;101585.88;;;13.58;100.00
12247;BME280;6186;52.022;4.692;2023-05-11T04:45:02;101590.19;;;13.62;100.00
12247;BME280;6186;52.022;4.692;2023-05-11T04:47:27;101587.44;;;13.65;100.00
12247;BME280;6186;52.022;4.692;2023-05-11T04:49:52;101594.44;;;13.67;100.00
12247;BME280;6186;52.022;4.692;2023-05-11T04:52:17;101601.50;;;13.67;100.00
12247;BME280;6186;52.022;4.692;2023-05-11T04:54:42;101597.88;;;13.71;100.00
12247;BME280;6186;52.022;4.692;2023-05-11T04:57:08;101599.63;;;13.72;100.00
12247;BME280;6186;52.022;4.692;2023-05-11T04:59:33;101600.41;;;13.75;100.00
12247;BME280;6186;52.022;4.692;2023-05-11T05:01:58;101598.56;;;13.79;100.00
12247;BME280;6186;52.022;4.692;2023-05-11T05:04:23;101596.84;;;13.76;100.00
12247;BME280;6186;52.022;4.692;2023-05-11T05:06:49;101601.09;;;13.82;100.00
12247;BME280;6186;52.022;4.692;2023-05-11T05:09:14;101600.16;;;13.84;100.00
12247;BME280;6186;52.022;4.692;2023-05-11T05:11:39;101608.06;;;13.86;100.00
12247;BME280;6186;52.022;4.692;2023-05-11T05:14:04;101599.19;;;13.88;100.00
12247;BME280;6186;52.022;4.692;2023-05-11T05:16:29;101601.72;;;13.91;100.00
12247;BME280;6186;52.022;4.692;2023-05-11T05:18:55;101613.19;;;13.92;100.00
12247;BME280;6186;52.022;4.692;2023-05-11T05:21:20;101614.91;;;13.93;100.00
12247;BME280;6186;52.022;4.692;2023-05-11T05:23:45;101615.75;;;13.95;100.00
12247;BME280;6186;52.022;4.692;2023-05-11T05:26:10;101616.63;;;13.95;100.00
12247;BME280;6186;52.022;4.692;2023-05-11T05:28:35;101619.28;;;13.95;100.00
12247;BME280;6186;52.022;4.692;2023-05-11T05:31:01;101628.09;;;13.96;100.00
12247;BME280;6186;52.022;4.692;2023-05-11T05:33:26;101629.88;;;13.95;100.00
12247;BME280;6186;52.022;4.692;2023-05-11T05:35:51;101632.47;;;13.97;100.00
12247;BME280;6186;52.022;4.692;2023-05-11T05:38:16;101633.34;;;13.97;100.00
12247;BME280;6186;52.022;4.692;2023-05-11T05:40:42;101635.94;;;13.99;100.00
12247;BME280;6186;52.022;4.692;2023-05-11T05:43:07;101639.47;;;13.99;100.00
12247;BME280;6186;52.022;4.692;2023-05-11T05:45:32;101635.88;;;14.00;100.00
12247;BME280;6186;52.022;4.692;2023-05-11T05:47:57;101637.59;;;14.03;100.00
12247;BME280;6186;52.022;4.692;2023-05-11T05:50:22;101640.19;;;14.06;100.00
12247;BME280;6186;52.022;4.692;2023-05-11T05:52:48;101640.91;;;14.11;100.00
12247;BME280;6186;52.022;4.692;2023-05-11T05:55:13;101637.28;;;14.15;100.00
12247;BME280;6186;52.022;4.692;2023-05-11T05:57:38;101645.09;;;14.19;100.00
12247;BME280;6186;52.022;4.692;2023-05-11T06:00:04;101645.91;;;14.23;100.00
12247;BME280;6186;52.022;4.692;2023-05-11T06:02:29;101644.03;;;14.25;100.00
12247;BME280;6186;52.022;4.692;2023-05-11T06:04:54;101646.66;;;14.28;100.00
12247;BME280;6186;52.022;4.692;2023-05-11T06:07:20;101643.91;;;14.31;100.00
12247;BME280;6186;52.022;4.692;2023-05-11T06:09:45;101643.03;;;14.32;100.00
12247;BME280;6186;52.022;4.692;2023-05-11T06:12:10;101642.03;;;14.35;100.00
12247;BME280;6186;52.022;4.692;2023-05-11T06:14:35;101639.28;;;14.39;100.00
12247;BME280;6186;52.022;4.692;2023-05-11T06:17:01;101641.00;;;14.40;100.00
12247;BME280;6186;52.022;4.692;2023-05-11T06:19:26;101643.59;;;14.43;100.00
12247;BME280;6186;52.022;4.692;2023-05-11T06:21:51;101646.13;;;14.46;100.00
12247;BME280;6186;52.022;4.692;2023-05-11T06:24:16;101647.88;;;14.47;100.00
12247;BME280;6186;52.022;4.692;2023-05-11T06:26:41;101648.78;;;14.46;100.00
12247;BME280;6186;52.022;4.692;2023-05-11T06:29:07;101654.00;;;14.49;100.00
12247;BME280;6186;52.022;4.692;2023-05-11T06:31:32;101660.97;;;14.53;100.00
12247;BME280;6186;52.022;4.692;2023-05-11T06:33:57;101662.59;;;14.57;100.00
12247;BME280;6186;52.022;4.692;2023-05-11T06:36:23;101662.59;;;14.57;100.00
12247;BME280;6186;52.022;4.692;2023-05-11T06:38:48;101659.16;;;14.55;100.00
12247;BME280;6186;52.022;4.692;2023-05-11T06:41:13;101662.69;;;14.54;100.00
12247;BME280;6186;52.022;4.692;2023-05-11T06:43:38;101660.03;;;14.54;100.00
12247;BME280;6186;52.022;4.692;2023-05-11T06:46:04;101660.88;;;14.56;100.00
12247;BME280;6186;52.022;4.692;2023-05-11T06:48:29;101662.59;;;14.57;100.00
12247;BME280;6186;52.022;4.692;2023-05-11T06:50:55;101666.16;;;14.56;100.00
12247;BME280;6186;52.022;4.692;2023-05-11T06:53:20;101670.53;;;14.57;100.00
12247;BME280;6186;52.022;4.692;2023-05-11T06:55:46;101664.56;;;14.51;100.00
12247;BME280;6186;52.022;4.692;2023-05-11T06:58:11;101673.28;;;14.54;100.00
12247;BME280;6186;52.022;4.692;2023-05-11T07:00:37;101667.25;;;14.49;100.00
12247;BME280;6186;52.022;4.692;2023-05-11T07:03:02;101662.00;;;14.48;100.00
12247;BME280;6186;52.022;4.692;2023-05-11T07:05:27;101668.09;;;14.51;100.00
12247;BME280;6186;52.022;4.692;2023-05-11T07:07:52;101669.81;;;14.52;100.00
12247;BME280;6186;52.022;4.692;2023-05-11T07:10:17;101673.28;;;14.54;100.00
12247;BME280;6186;52.022;4.692;2023-05-11T07:12:43;101672.41;;;14.55;100.00
12247;BME280;6186;52.022;4.692;2023-05-11T07:15:08;101681.97;;;14.59;100.00
12247;BME280;6186;52.022;4.692;2023-05-11T07:17:34;101681.91;;;14.62;100.00
12247;BME280;6186;52.022;4.692;2023-05-11T07:19:59;101673.06;;;14.62;100.00
12247;BME280;6186;52.022;4.692;2023-05-11T07:22:24;101679.09;;;14.68;100.00
12247;BME280;6186;52.022;4.692;2023-05-11T07:24:49;101682.50;;;14.72;100.00
12247;BME280;6186;52.022;4.692;2023-05-11T07:27:14;101680.63;;;14.75;100.00
12247;BME280;6186;52.022;4.692;2023-05-11T07:29:40;101670.84;;;14.77;100.00
12247;BME280;6186;52.022;4.692;2023-05-11T07:32:05;101679.38;;;14.88;100.00
12247;BME280;6186;52.022;4.692;2023-05-11T07:34:30;101679.19;;;14.94;100.00
12247;BME280;6186;52.022;4.692;2023-05-11T07:36:55;101688.81;;;14.97;100.00
12247;BME280;6186;52.022;4.692;2023-05-11T07:39:21;101671.31;;;14.91;100.00
12247;BME280;6186;52.022;4.692;2023-05-11T07:41:46;101674.66;;;14.98;100.00
12247;BME280;6186;52.022;4.692;2023-05-11T07:44:11;101685.16;;;15.01;100.00
12247;BME280;6186;52.022;4.692;2023-05-11T07:46:36;101681.56;;;15.03;100.00
12247;BME280;6186;52.022;4.692;2023-05-11T07:49:01;101694.75;;;15.05;100.00
12247;BME280;6186;52.022;4.692;2023-05-11T07:51:27;101681.50;;;15.05;100.00
12247;BME280;6186;52.022;4.692;2023-05-11T07:53:52;101684.09;;;15.06;100.00
12247;BME280;6186;52.022;4.692;2023-05-11T07:56:17;101687.56;;;15.08;100.00
12247;BME280;6186;52.022;4.692;2023-05-11T07:58:42;101684.91;;;15.10;100.00
12247;BME280;6186;52.022;4.692;2023-05-11T08:01:08;101685.75;;;15.10;100.00
12247;BME280;6186;52.022;4.692;2023-05-11T08:03:33;101685.84;;;15.07;100.00
12247;BME280;6186;52.022;4.692;2023-05-11T08:05:58;101686.81;;;15.05;100.00
12247;BME280;6186;52.022;4.692;2023-05-11T08:08:24;101696.47;;;15.07;100.00
12247;BME280;6186;52.022;4.692;2023-05-11T08:10:49;101695.50;;;15.10;100.00
12247;BME280;6186;52.022;4.692;2023-05-11T08:13:14;101690.16;;;15.12;100.00
12247;BME280;6186;52.022;4.692;2023-05-11T08:15:39;101690.88;;;15.17;100.00
12247;BME280;6186;52.022;4.692;2023-05-11T08:18:05;101682.97;;;15.15;100.00
12247;BME280;6186;52.022;4.692;2023-05-11T08:20:30;101690.81;;;15.20;100.00
12247;BME280;6186;52.022;4.692;2023-05-11T08:22:55;101698.53;;;15.27;100.00
12247;BME280;6186;52.022;4.692;2023-05-11T08:25:20;101698.38;;;15.32;100.00
12247;BME280;6186;52.022;4.692;2023-05-11T08:27:46;101698.09;;;15.42;100.00
12247;BME280;6186;52.022;4.692;2023-05-11T08:30:11;101695.06;;;15.53;100.00
12247;BME280;6186;52.022;4.692;2023-05-11T08:32:36;101697.34;;;15.65;100.00
12247;BME280;6186;52.022;4.692;2023-05-11T08:35:02;101696.03;;;15.78;100.00
12247;BME280;6186;52.022;4.692;2023-05-11T08:37:27;101686.81;;;15.88;100.00
12247;BME280;6186;52.022;4.692;2023-05-11T08:39:52;101690.75;;;16.02;100.00
12247;BME280;6186;52.022;4.692;2023-05-11T08:42:18;101689.16;;;16.23;100.00
12247;BME280;6186;52.022;4.692;2023-05-11T08:44:46;101698.03;;;16.48;100.00
12247;BME280;6186;52.022;4.692;2023-05-11T08:47:13;101698.72;;;16.78;100.00
12247;BME280;6186;52.022;4.692;2023-05-11T08:49:39;101686.91;;;17.08;100.00
12247;BME280;6186;52.022;4.692;2023-05-11T08:52:04;101692.00;;;17.36;100.00
12247;BME280;6186;52.022;4.692;2023-05-11T08:54:30;101690.72;;;17.46;100.00
12247;BME280;6186;52.022;4.692;2023-05-11T08:56:57;101687.31;;;17.42;100.00
12247;BME280;6186;52.022;4.692;2023-05-11T08:59:25;101683.91;;;17.39;100.00
12247;BME280;6186;52.022;4.692;2023-05-11T09:01:51;101690.91;;;17.41;100.00
12247;BME280;6186;52.022;4.692;2023-05-11T09:04:17;101690.41;;;17.32;100.00
12247;BME280;6186;52.022;4.692;2023-05-11T09:06:43;101689.47;;;17.33;100.00
12247;BME280;6186;52.022;4.692;2023-05-11T09:09:09;101687.06;;;17.27;100.00
12247;BME280;6186;52.022;4.692;2023-05-11T09:11:34;101691.00;;;17.17;100.00
12247;BME280;6186;52.022;4.692;2023-05-11T09:13:59;101685.16;;;17.07;100.00
12247;BME280;6186;52.022;4.692;2023-05-11T09:16:25;101694.97;;;17.07;100.00
12247;BME280;6186;52.022;4.692;2023-05-11T09:18:52;101690.84;;;16.98;100.00
12247;BME280;6186;52.022;4.692;2023-05-11T09:21:18;101688.47;;;16.90;100.00
12247;BME280;6186;52.022;4.692;2023-05-11T09:23:44;101686.09;;;16.83;100.00
12247;BME280;6186;52.022;4.692;2023-05-11T09:26:14;101697.72;;;16.80;100.00
12247;BME280;6186;52.022;4.692;2023-05-11T09:28:47;101696.09;;;16.76;100.00
12247;BME280;6186;52.022;4.692;2023-05-11T09:31:36;101695.38;;;16.71;100.00
12247;BME280;6186;52.022;4.692;2023-05-11T09:36:33;101696.31;;;16.70;100.00
12247;BME280;6186;52.022;4.692;2023-05-11T09:39:01;101693.81;;;16.66;100.00
12247;BME280;6186;52.022;4.692;2023-05-11T09:41:27;101695.72;;;16.62;100.00
12247;BME280;6186;52.022;4.692;2023-05-11T09:43:52;101695.59;;;16.65;100.00
12247;BME280;6186;52.022;4.692;2023-05-11T09:46:20;101692.72;;;16.71;100.00
12247;BME280;6186;52.022;4.692;2023-05-11T09:48:57;101698.03;;;16.73;100.00
12247;BME280;6186;52.022;4.692;2023-05-11T09:51:28;101695.22;;;16.76;100.00
12247;BME280;6186;52.022;4.692;2023-05-11T09:53:53;101697.72;;;16.80;100.00
12247;BME280;6186;52.022;4.692;2023-05-11T09:56:18;101692.28;;;16.83;100.00
12247;BME280;6186;52.022;4.692;2023-05-11T09:58:51;101690.38;;;16.87;100.00
12247;BME280;6186;52.022;4.692;2023-05-11T10:01:28;101699.31;;;16.84;100.00
12247;BME280;6186;52.022;4.692;2023-05-11T10:03:53;101688.81;;;16.81;100.00
12247;BME280;6186;52.022;4.692;2023-05-11T10:06:19;101695.69;;;16.87;100.00
12247;BME280;6186;52.022;4.692;2023-05-11T10:08:45;101692.22;;;16.85;100.00
12247;BME280;6186;52.022;4.692;2023-05-11T10:11:11;101695.63;;;16.88;100.00
12247;BME280;6186;52.022;4.692;2023-05-11T10:13:36;101697.31;;;16.91;100.00
12247;BME280;6186;52.022;4.692;2023-05-11T10:16:03;101699.84;;;16.94;100.00
12247;BME280;6186;52.022;4.692;2023-05-11T10:18:32;101700.59;;;16.98;100.00
12247;BME280;6186;52.022;4.692;2023-05-11T10:20:58;101695.25;;;16.99;100.00
12247;BME280;6186;52.022;4.692;2023-05-11T10:23:25;101690.66;;;17.03;100.00
12247;BME280;6186;52.022;4.692;2023-05-11T10:25:51;101693.09;;;17.09;100.00
12247;BME280;6186;52.022;4.692;2023-05-11T10:28:18;101697.03;;;17.22;100.00
12247;BME280;6186;52.022;4.692;2023-05-11T10:30:43;101686.88;;;17.31;100.00
12247;BME280;6186;52.022;4.692;2023-05-11T10:33:09;101693.56;;;17.41;100.00
12247;BME280;6186;52.022;4.692;2023-05-11T10:35:37;101699.41;;;17.51;100.00
12247;BME280;6186;52.022;4.692;2023-05-11T10:38:02;101698.38;;;17.55;100.00
12247;BME280;6186;52.022;4.692;2023-05-11T10:40:27;101696.50;;;17.57;100.00
12247;BME280;6186;52.022;4.692;2023-05-11T10:48:51;101690.06;;;17.41;100.00
12247;BME280;6186;52.022;4.692;2023-05-11T10:51:43;101691.91;;;17.39;100.00
12247;BME280;6186;52.022;4.692;2023-05-11T10:57:12;101698.44;;;17.30;100.00
12247;BME280;6186;52.022;4.692;2023-05-11T11:00:17;101697.63;;;17.28;100.00
12247;BME280;6186;52.022;4.692;2023-05-11T11:02:48;101694.00;;;17.31;100.00
12247;BME280;6186;52.022;4.692;2023-05-11T11:05:31;101698.28;;;17.35;100.00
12247;BME280;6186;52.022;4.692;2023-05-11T11:07:58;101695.63;;;17.35;100.00
12247;BME280;6186;52.022;4.692;2023-05-11T11:10:32;101688.50;;;17.35;100.00
12247;BME280;6186;52.022;4.692;2023-05-11T11:13:05;101690.22;;;17.36;100.00
12247;BME280;6186;52.022;4.692;2023-05-11T11:16:07;101690.16;;;17.38;100.00
12247;BME280;6186;52.022;4.692;2023-05-11T11:18:32;101696.06;;;17.46;100.00
12247;BME280;6186;52.022;4.692;2023-05-11T11:20:58;101696.34;;;17.61;100.00
12247;BME280;6186;52.022;4.692;2023-05-11T11:26:04;101697.50;;;18.38;100.00
12247;BME280;6186;52.022;4.692;2023-05-11T11:31:39;101704.88;;;18.92;100.00
12247;BME280;6186;52.022;4.692;2023-05-11T11:39:24;101701.53;;;18.48;100.00
12247;BME280;6186;52.022;4.692;2023-05-11T11:44:25;101717.09;;;18.17;100.00
12247;BME280;6186;52.022;4.692;2023-05-11T11:47:18;101714.47;;;17.95;100.00
12247;BME280;6186;52.022;4.692;2023-05-11T11:49:52;101714.47;;;17.73;100.00
12247;BME280;6186;52.022;4.692;2023-05-11T11:54:52;101716.78;;;17.38;100.00
12247;BME280;6186;52.022;4.692;2023-05-11T12:00:03;101710.75;;;16.88;100.00
12247;BME280;6186;52.022;4.692;2023-05-11T12:02:30;101714.81;;;16.73;100.00
12247;BME280;6186;52.022;4.692;2023-05-11T12:05:11;101707.19;;;16.64;100.00
12247;BME280;6186;52.022;4.692;2023-05-11T12:07:40;101719.53;;;16.65;100.00
12247;BME280;6186;52.022;4.692;2023-05-11T12:10:06;101721.94;;;16.73;100.00
12247;BME280;6186;52.022;4.692;2023-05-11T12:12:32;101729.59;;;16.82;100.00
12247;BME280;6186;52.022;4.692;2023-05-11T12:14:57;101723.91;;;16.91;100.00
12247;BME280;6186;52.022;4.692;2023-05-11T12:17:25;101723.75;;;16.96;100.00
12247;BME280;6186;52.022;4.692;2023-05-11T12:19:50;101714.91;;;16.95;100.00
12247;BME280;6186;52.022;4.692;2023-05-11T12:22:25;101717.66;;;16.92;100.00
12247;BME280;6186;52.022;4.692;2023-05-11T12:24:53;101718.53;;;16.92;100.00
12247;BME280;6186;52.022;4.692;2023-05-11T12:27:19;101716.84;;;16.90;100.00
12247;BME280;6186;52.022;4.692;2023-05-11T12:29:48;101716.09;;;16.86;100.00
12247;BME280;6186;52.022;4.692;2023-05-11T12:32:13;101716.22;;;16.83;100.00
12247;BME280;6186;52.022;4.692;2023-05-11T12:34:39;101717.19;;;16.81;100.00
12247;BME280;6186;52.022;4.692;2023-05-11T12:37:05;101720.94;;;16.75;100.00
12247;BME280;6186;52.022;4.692;2023-05-11T12:39:30;101729.88;;;16.74;100.00
12247;BME280;6186;52.022;4.692;2023-05-11T12:41:56;101726.38;;;16.72;100.00
12247;BME280;6186;52.022;4.692;2023-05-11T12:44:23;101714.88;;;16.72;100.00
12247;BME280;6186;52.022;4.692;2023-05-11T12:46:49;101728.22;;;16.70;100.00
12247;BME280;6186;52.022;4.692;2023-05-11T12:49:16;101736.41;;;16.64;100.00
12247;BME280;6186;52.022;4.692;2023-05-11T12:51:46;101729.53;;;16.59;100.00
12247;BME280;6186;52.022;4.692;2023-05-11T12:54:24;101732.34;;;16.54;100.00
12247;BME280;6186;52.022;4.692;2023-05-11T12:56:49;101732.53;;;16.50;100.00
12247;BME280;6186;52.022;4.692;2023-05-11T13:01:53;101725.00;;;16.36;100.00
12247;BME280;6186;52.022;4.692;2023-05-11T13:04:28;101731.19;;;16.37;100.00
12247;BME280;6186;52.022;4.692;2023-05-11T13:06:53;101733.72;;;16.40;100.00
12247;BME280;6186;52.022;4.692;2023-05-11T13:09:25;101735.25;;;16.48;100.00
12247;BME280;6186;52.022;4.692;2023-05-11T13:12:26;101731.66;;;16.49;100.00
12247;BME280;6186;52.022;4.692;2023-05-11T13:15:08;101733.28;;;16.53;100.00
12247;BME280;6186;52.022;4.692;2023-05-11T13:17:35;101722.47;;;16.58;100.00
12247;BME280;6186;52.022;4.692;2023-05-11T13:20:33;101723.13;;;16.64;100.00
12247;BME280;6186;52.022;4.692;2023-05-11T13:25:26;101718.63;;;16.66;100.00
12247;BME280;6186;52.022;4.692;2023-05-11T13:27:52;101715.16;;;16.64;100.00
12247;BME280;6186;52.022;4.692;2023-05-11T13:30:17;101721.28;;;16.66;100.00
12247;BME280;6186;52.022;4.692;2023-05-11T13:32:42;101723.00;;;16.67;100.00
12247;BME280;6186;52.022;4.692;2023-05-11T13:35:08;101724.63;;;16.71;100.00